sensor_id;sensor_type;location;lat;lon;timestamp;P1;durP1;ratioP1;P2;durP2;ratioP2
74551;SDS011;63025;55.472;38.432;2024-01-06T00:01:53;18.00;;;7.72;;
74551;SDS011;63025;55.472;38.432;2024-01-06T00:04:18;12.68;;;6.22;;
74551;SDS011;63025;55.472;38.432;2024-01-06T00:06:44;18.70;;;7.28;;
74551;SDS011;63025;55.472;38.432;2024-01-06T00:09:10;19.05;;;7.15;;
74551;SDS011;63025;55.472;38.432;2024-01-06T00:11:36;13.90;;;6.30;;
74551;SDS011;63025;55.472;38.432;2024-01-06T00:14:02;18.17;;;6.82;;
74551;SDS011;63025;55.472;38.432;2024-01-06T00:16:28;14.30;;;6.13;;
74551;SDS011;63025;55.472;38.432;2024-01-06T00:18:54;14.43;;;6.25;;
74551;SDS011;63025;55.472;38.432;2024-01-06T00:21:20;19.73;;;6.70;;
74551;SDS011;63025;55.472;38.432;2024-01-06T00:23:45;19.75;;;6.60;;
74551;SDS011;63025;55.472;38.432;2024-01-06T00:26:11;16.55;;;5.80;;
74551;SDS011;63025;55.472;38.432;2024-01-06T00:28:38;12.80;;;5.78;;
74551;SDS011;63025;55.472;38.432;2024-01-06T00:31:04;16.05;;;6.72;;
74551;SDS011;63025;55.472;38.432;2024-01-06T00:33:31;20.70;;;7.07;;
74551;SDS011;63025;55.472;38.432;2024-01-06T00:35:57;14.98;;;6.72;;
74551;SDS011;63025;55.472;38.432;2024-01-06T00:38:23;25.23;;;8.32;;
74551;SDS011;63025;55.472;38.432;2024-01-06T00:40:49;22.52;;;8.70;;
74551;SDS011;63025;55.472;38.432;2024-01-06T00:43:14;18.83;;;7.43;;
74551;SDS011;63025;55.472;38.432;2024-01-06T00:45:40;18.17;;;6.32;;
74551;SDS011;63025;55.472;38.432;2024-01-06T00:48:06;16.63;;;6.50;;
74551;SDS011;63025;55.472;38.432;2024-01-06T00:50:33;14.10;;;6.57;;
74551;SDS011;63025;55.472;38.432;2024-01-06T00:52:59;13.95;;;5.50;;
74551;SDS011;63025;55.472;38.432;2024-01-06T00:55:25;14.20;;;6.05;;
74551;SDS011;63025;55.472;38.432;2024-01-06T00:57:51;15.05;;;5.85;;
74551;SDS011;63025;55.472;38.432;2024-01-06T01:00:16;16.77;;;6.88;;
74551;SDS011;63025;55.472;38.432;2024-01-06T01:02:42;19.52;;;6.72;;
74551;SDS011;63025;55.472;38.432;2024-01-06T01:05:09;20.70;;;7.65;;
74551;SDS011;63025;55.472;38.432;2024-01-06T01:07:35;17.08;;;7.32;;
74551;SDS011;63025;55.472;38.432;2024-01-06T01:10:02;16.45;;;6.65;;
74551;SDS011;63025;55.472;38.432;2024-01-06T01:12:30;14.43;;;4.43;;
74551;SDS011;63025;55.472;38.432;2024-01-06T01:14:56;16.05;;;6.28;;
74551;SDS011;63025;55.472;38.432;2024-01-06T01:17:22;26.70;;;6.97;;
74551;SDS011;63025;55.472;38.432;2024-01-06T01:19:48;14.50;;;5.78;;
74551;SDS011;63025;55.472;38.432;2024-01-06T01:22:13;24.50;;;6.60;;
74551;SDS011;63025;55.472;38.432;2024-01-06T01:24:40;22.45;;;5.90;;
74551;SDS011;63025;55.472;38.432;2024-01-06T01:27:06;18.58;;;6.22;;
74551;SDS011;63025;55.472;38.432;2024-01-06T01:29:32;18.85;;;6.43;;
74551;SDS011;63025;55.472;38.432;2024-01-06T01:31:58;18.33;;;6.32;;
74551;SDS011;63025;55.472;38.432;2024-01-06T01:34:24;19.98;;;6.35;;
74551;SDS011;63025;55.472;38.432;2024-01-06T01:36:49;20.50;;;6.88;;
74551;SDS011;63025;55.472;38.432;2024-01-06T01:39:15;13.85;;;5.40;;
74551;SDS011;63025;55.472;38.432;2024-01-06T01:41:42;13.02;;;5.63;;
74551;SDS011;63025;55.472;38.432;2024-01-06T01:44:08;20.95;;;6.32;;
74551;SDS011;63025;55.472;38.432;2024-01-06T01:46:34;13.48;;;5.90;;
74551;SDS011;63025;55.472;38.432;2024-01-06T01:49:01;13.63;;;4.55;;
74551;SDS011;63025;55.472;38.432;2024-01-06T01:51:29;17.02;;;5.32;;
74551;SDS011;63025;55.472;38.432;2024-01-06T01:53:57;13.93;;;5.40;;
74551;SDS011;63025;55.472;38.432;2024-01-06T01:56:23;14.27;;;5.50;;
74551;SDS011;63025;55.472;38.432;2024-01-06T01:58:50;15.55;;;5.45;;
74551;SDS011;63025;55.472;38.432;2024-01-06T02:01:16;13.32;;;5.57;;
74551;SDS011;63025;55.472;38.432;2024-01-06T02:03:43;14.63;;;5.30;;
74551;SDS011;63025;55.472;38.432;2024-01-06T02:06:12;13.88;;;5.68;;
74551;SDS011;63025;55.472;38.432;2024-01-06T02:08:39;14.27;;;5.75;;
74551;SDS011;63025;55.472;38.432;2024-01-06T02:11:05;12.35;;;5.20;;
74551;SDS011;63025;55.472;38.432;2024-01-06T02:13:34;13.48;;;5.03;;
74551;SDS011;63025;55.472;38.432;2024-01-06T02:16:03;14.67;;;5.07;;
74551;SDS011;63025;55.472;38.432;2024-01-06T02:18:31;17.33;;;5.82;;
74551;SDS011;63025;55.472;38.432;2024-01-06T02:20:58;14.48;;;5.45;;
74551;SDS011;63025;55.472;38.432;2024-01-06T02:23:29;11.95;;;4.95;;
74551;SDS011;63025;55.472;38.432;2024-01-06T02:25:55;13.02;;;4.80;;
74551;SDS011;63025;55.472;38.432;2024-01-06T02:28:22;13.77;;;4.82;;
74551;SDS011;63025;55.472;38.432;2024-01-06T02:30:49;15.38;;;5.25;;
74551;SDS011;63025;55.472;38.432;2024-01-06T02:33:15;15.02;;;5.03;;
74551;SDS011;63025;55.472;38.432;2024-01-06T02:35:41;15.40;;;5.63;;
74551;SDS011;63025;55.472;38.432;2024-01-06T02:38:07;11.27;;;4.75;;
74551;SDS011;63025;55.472;38.432;2024-01-06T02:40:35;11.93;;;4.72;;
74551;SDS011;63025;55.472;38.432;2024-01-06T02:43:01;11.18;;;5.07;;
74551;SDS011;63025;55.472;38.432;2024-01-06T02:45:27;14.18;;;5.35;;
74551;SDS011;63025;55.472;38.432;2024-01-06T02:47:53;9.00;;;4.50;;
74551;SDS011;63025;55.472;38.432;2024-01-06T02:50:19;11.77;;;4.43;;
74551;SDS011;63025;55.472;38.432;2024-01-06T02:52:45;9.57;;;4.90;;
74551;SDS011;63025;55.472;38.432;2024-01-06T02:55:12;11.50;;;4.90;;
74551;SDS011;63025;55.472;38.432;2024-01-06T02:57:39;12.65;;;4.93;;
74551;SDS011;63025;55.472;38.432;2024-01-06T03:00:07;13.70;;;4.82;;
74551;SDS011;63025;55.472;38.432;2024-01-06T03:02:34;11.65;;;5.13;;
74551;SDS011;63025;55.472;38.432;2024-01-06T03:05:02;14.48;;;5.60;;
74551;SDS011;63025;55.472;38.432;2024-01-06T03:07:30;12.00;;;4.78;;
74551;SDS011;63025;55.472;38.432;2024-01-06T03:09:56;14.57;;;5.63;;
74551;SDS011;63025;55.472;38.432;2024-01-06T03:12:22;12.60;;;5.70;;
74551;SDS011;63025;55.472;38.432;2024-01-06T03:14:48;13.43;;;5.65;;
74551;SDS011;63025;55.472;38.432;2024-01-06T03:17:14;14.65;;;6.03;;
74551;SDS011;63025;55.472;38.432;2024-01-06T03:19:40;20.15;;;7.13;;
74551;SDS011;63025;55.472;38.432;2024-01-06T03:22:06;16.90;;;6.25;;
74551;SDS011;63025;55.472;38.432;2024-01-06T03:24:32;19.27;;;6.80;;
74551;SDS011;63025;55.472;38.432;2024-01-06T03:26:58;17.83;;;6.93;;
74551;SDS011;63025;55.472;38.432;2024-01-06T03:29:23;16.05;;;7.07;;
74551;SDS011;63025;55.472;38.432;2024-01-06T03:31:49;17.77;;;7.72;;
74551;SDS011;63025;55.472;38.432;2024-01-06T03:34:15;17.40;;;7.53;;
74551;SDS011;63025;55.472;38.432;2024-01-06T03:36:41;21.15;;;8.02;;
74551;SDS011;63025;55.472;38.432;2024-01-06T03:39:07;14.90;;;6.50;;
74551;SDS011;63025;55.472;38.432;2024-01-06T03:41:33;18.45;;;7.05;;
74551;SDS011;63025;55.472;38.432;2024-01-06T03:43:59;23.67;;;7.47;;
74551;SDS011;63025;55.472;38.432;2024-01-06T03:46:25;19.55;;;6.75;;
74551;SDS011;63025;55.472;38.432;2024-01-06T03:48:50;15.55;;;5.95;;
74551;SDS011;63025;55.472;38.432;2024-01-06T03:51:16;12.73;;;5.55;;
74551;SDS011;63025;55.472;38.432;2024-01-06T03:53:42;18.70;;;5.82;;
74551;SDS011;63025;55.472;38.432;2024-01-06T03:56:08;11.25;;;4.53;;
74551;SDS011;63025;55.472;38.432;2024-01-06T03:58:34;9.32;;;5.00;;
74551;SDS011;63025;55.472;38.432;2024-01-06T04:01:00;11.10;;;4.57;;
74551;SDS011;63025;55.472;38.432;2024-01-06T04:03:26;10.70;;;5.05;;
74551;SDS011;63025;55.472;38.432;2024-01-06T04:05:53;14.52;;;5.45;;
74551;SDS011;63025;55.472;38.432;2024-01-06T04:08:19;12.65;;;5.45;;
74551;SDS011;63025;55.472;38.432;2024-01-06T04:10:45;17.23;;;5.85;;
74551;SDS011;63025;55.472;38.432;2024-01-06T04:13:11;10.88;;;4.85;;
74551;SDS011;63025;55.472;38.432;2024-01-06T04:15:37;12.60;;;4.68;;
74551;SDS011;63025;55.472;38.432;2024-01-06T04:18:03;12.10;;;5.15;;
74551;SDS011;63025;55.472;38.432;2024-01-06T04:20:31;11.18;;;5.07;;
74551;SDS011;63025;55.472;38.432;2024-01-06T04:22:58;10.55;;;3.85;;
74551;SDS011;63025;55.472;38.432;2024-01-06T04:25:24;18.58;;;4.50;;
74551;SDS011;63025;55.472;38.432;2024-01-06T04:27:50;10.55;;;4.85;;
74551;SDS011;63025;55.472;38.432;2024-01-06T04:30:17;12.77;;;5.35;;
74551;SDS011;63025;55.472;38.432;2024-01-06T04:32:43;13.43;;;4.55;;
74551;SDS011;63025;55.472;38.432;2024-01-06T04:35:09;13.40;;;5.07;;
74551;SDS011;63025;55.472;38.432;2024-01-06T04:37:36;8.43;;;4.30;;
74551;SDS011;63025;55.472;38.432;2024-01-06T04:40:02;13.57;;;4.78;;
74551;SDS011;63025;55.472;38.432;2024-01-06T04:42:30;11.50;;;4.68;;
74551;SDS011;63025;55.472;38.432;2024-01-06T04:44:56;16.20;;;4.88;;
74551;SDS011;63025;55.472;38.432;2024-01-06T04:47:22;10.95;;;4.82;;
74551;SDS011;63025;55.472;38.432;2024-01-06T04:49:48;11.25;;;5.00;;
74551;SDS011;63025;55.472;38.432;2024-01-06T04:52:13;13.95;;;4.68;;
74551;SDS011;63025;55.472;38.432;2024-01-06T04:54:39;10.27;;;4.53;;
74551;SDS011;63025;55.472;38.432;2024-01-06T04:57:05;11.18;;;4.50;;
74551;SDS011;63025;55.472;38.432;2024-01-06T04:59:31;11.95;;;5.30;;
74551;SDS011;63025;55.472;38.432;2024-01-06T05:01:57;12.73;;;4.65;;
74551;SDS011;63025;55.472;38.432;2024-01-06T05:04:24;12.60;;;4.95;;
74551;SDS011;63025;55.472;38.432;2024-01-06T05:06:53;14.27;;;5.50;;
74551;SDS011;63025;55.472;38.432;2024-01-06T05:09:20;18.58;;;6.13;;
74551;SDS011;63025;55.472;38.432;2024-01-06T05:11:46;16.15;;;5.32;;
74551;SDS011;63025;55.472;38.432;2024-01-06T05:14:12;10.95;;;4.88;;
74551;SDS011;63025;55.472;38.432;2024-01-06T05:16:38;11.98;;;4.53;;
74551;SDS011;63025;55.472;38.432;2024-01-06T05:19:04;10.23;;;5.40;;
74551;SDS011;63025;55.472;38.432;2024-01-06T05:21:30;14.02;;;5.30;;
74551;SDS011;63025;55.472;38.432;2024-01-06T05:23:56;11.35;;;5.05;;
74551;SDS011;63025;55.472;38.432;2024-01-06T05:26:22;15.55;;;4.28;;
74551;SDS011;63025;55.472;38.432;2024-01-06T05:28:48;10.95;;;4.85;;
74551;SDS011;63025;55.472;38.432;2024-01-06T05:31:14;11.05;;;4.22;;
74551;SDS011;63025;55.472;38.432;2024-01-06T05:33:40;13.90;;;4.93;;
74551;SDS011;63025;55.472;38.432;2024-01-06T05:36:06;15.80;;;5.55;;
74551;SDS011;63025;55.472;38.432;2024-01-06T05:38:32;20.40;;;7.63;;
74551;SDS011;63025;55.472;38.432;2024-01-06T05:40:58;15.98;;;6.07;;
74551;SDS011;63025;55.472;38.432;2024-01-06T05:43:24;15.82;;;5.72;;
74551;SDS011;63025;55.472;38.432;2024-01-06T05:45:56;11.40;;;4.95;;
74551;SDS011;63025;55.472;38.432;2024-01-06T05:48:22;12.85;;;5.00;;
74551;SDS011;63025;55.472;38.432;2024-01-06T05:50:47;16.88;;;5.70;;
74551;SDS011;63025;55.472;38.432;2024-01-06T05:53:13;11.88;;;4.80;;
74551;SDS011;63025;55.472;38.432;2024-01-06T05:55:40;13.02;;;4.65;;
74551;SDS011;63025;55.472;38.432;2024-01-06T05:58:06;15.95;;;4.80;;
74551;SDS011;63025;55.472;38.432;2024-01-06T06:00:32;12.82;;;5.97;;
74551;SDS011;63025;55.472;38.432;2024-01-06T06:02:58;14.25;;;5.28;;
74551;SDS011;63025;55.472;38.432;2024-01-06T06:05:24;14.30;;;4.78;;
74551;SDS011;63025;55.472;38.432;2024-01-06T06:07:50;13.07;;;5.15;;
74551;SDS011;63025;55.472;38.432;2024-01-06T06:10:17;12.70;;;4.82;;
74551;SDS011;63025;55.472;38.432;2024-01-06T06:12:44;12.95;;;4.75;;
74551;SDS011;63025;55.472;38.432;2024-01-06T06:15:10;15.75;;;5.80;;
74551;SDS011;63025;55.472;38.432;2024-01-06T06:17:36;16.30;;;5.90;;
74551;SDS011;63025;55.472;38.432;2024-01-06T06:20:03;15.77;;;6.50;;
74551;SDS011;63025;55.472;38.432;2024-01-06T06:22:30;14.85;;;6.43;;
74551;SDS011;63025;55.472;38.432;2024-01-06T06:24:59;11.73;;;5.68;;
74551;SDS011;63025;55.472;38.432;2024-01-06T06:27:26;13.13;;;5.38;;
74551;SDS011;63025;55.472;38.432;2024-01-06T06:29:55;12.40;;;5.82;;
74551;SDS011;63025;55.472;38.432;2024-01-06T06:32:21;13.18;;;5.70;;
74551;SDS011;63025;55.472;38.432;2024-01-06T06:34:47;16.42;;;5.95;;
74551;SDS011;63025;55.472;38.432;2024-01-06T06:37:13;17.88;;;6.72;;
74551;SDS011;63025;55.472;38.432;2024-01-06T06:39:39;25.20;;;8.32;;
74551;SDS011;63025;55.472;38.432;2024-01-06T06:42:05;20.98;;;7.65;;
74551;SDS011;63025;55.472;38.432;2024-01-06T06:44:31;12.10;;;5.22;;
74551;SDS011;63025;55.472;38.432;2024-01-06T06:46:57;23.77;;;7.30;;
74551;SDS011;63025;55.472;38.432;2024-01-06T06:49:23;21.35;;;8.70;;
74551;SDS011;63025;55.472;38.432;2024-01-06T06:51:49;18.95;;;7.15;;
74551;SDS011;63025;55.472;38.432;2024-01-06T06:54:15;19.15;;;7.63;;
74551;SDS011;63025;55.472;38.432;2024-01-06T06:56:42;21.13;;;7.85;;
74551;SDS011;63025;55.472;38.432;2024-01-06T06:59:09;22.70;;;7.90;;
74551;SDS011;63025;55.472;38.432;2024-01-06T07:01:36;36.03;;;13.13;;
74551;SDS011;63025;55.472;38.432;2024-01-06T07:04:03;37.58;;;12.98;;
74551;SDS011;63025;55.472;38.432;2024-01-06T07:06:29;52.35;;;16.48;;
74551;SDS011;63025;55.472;38.432;2024-01-06T07:08:56;44.90;;;14.00;;
74551;SDS011;63025;55.472;38.432;2024-01-06T07:11:22;35.10;;;11.95;;
74551;SDS011;63025;55.472;38.432;2024-01-06T07:13:49;26.75;;;9.50;;
74551;SDS011;63025;55.472;38.432;2024-01-06T07:16:15;23.75;;;9.63;;
74551;SDS011;63025;55.472;38.432;2024-01-06T07:18:41;28.10;;;10.90;;
74551;SDS011;63025;55.472;38.432;2024-01-06T07:21:07;32.60;;;12.05;;
74551;SDS011;63025;55.472;38.432;2024-01-06T07:23:33;28.10;;;10.00;;
74551;SDS011;63025;55.472;38.432;2024-01-06T07:25:59;19.33;;;8.25;;
74551;SDS011;63025;55.472;38.432;2024-01-06T07:28:37;27.88;;;9.45;;
74551;SDS011;63025;55.472;38.432;2024-01-06T07:31:04;20.45;;;8.20;;
74551;SDS011;63025;55.472;38.432;2024-01-06T07:33:30;18.02;;;6.05;;
74551;SDS011;63025;55.472;38.432;2024-01-06T07:35:56;20.48;;;7.93;;
74551;SDS011;63025;55.472;38.432;2024-01-06T07:38:22;14.90;;;7.70;;
74551;SDS011;63025;55.472;38.432;2024-01-06T07:40:48;11.57;;;6.15;;
74551;SDS011;63025;55.472;38.432;2024-01-06T07:43:14;15.13;;;6.97;;
74551;SDS011;63025;55.472;38.432;2024-01-06T07:45:40;11.10;;;6.05;;
74551;SDS011;63025;55.472;38.432;2024-01-06T07:48:07;14.52;;;6.25;;
74551;SDS011;63025;55.472;38.432;2024-01-06T07:50:33;12.07;;;6.15;;
74551;SDS011;63025;55.472;38.432;2024-01-06T07:52:58;12.75;;;5.70;;
74551;SDS011;63025;55.472;38.432;2024-01-06T07:55:24;16.25;;;6.90;;
74551;SDS011;63025;55.472;38.432;2024-01-06T07:57:54;19.75;;;6.90;;
74551;SDS011;63025;55.472;38.432;2024-01-06T08:00:25;15.43;;;6.38;;
74551;SDS011;63025;55.472;38.432;2024-01-06T08:02:51;15.93;;;6.13;;
74551;SDS011;63025;55.472;38.432;2024-01-06T08:05:17;15.13;;;6.10;;
74551;SDS011;63025;55.472;38.432;2024-01-06T08:07:43;15.18;;;6.35;;
74551;SDS011;63025;55.472;38.432;2024-01-06T08:10:09;13.13;;;6.10;;
74551;SDS011;63025;55.472;38.432;2024-01-06T08:12:34;18.98;;;7.05;;
74551;SDS011;63025;55.472;38.432;2024-01-06T08:15:01;16.42;;;6.53;;
74551;SDS011;63025;55.472;38.432;2024-01-06T08:17:30;17.23;;;6.90;;
74551;SDS011;63025;55.472;38.432;2024-01-06T08:19:55;14.52;;;6.47;;
74551;SDS011;63025;55.472;38.432;2024-01-06T08:22:22;16.35;;;7.03;;
74551;SDS011;63025;55.472;38.432;2024-01-06T08:24:48;15.75;;;6.75;;
74551;SDS011;63025;55.472;38.432;2024-01-06T08:27:13;18.20;;;6.80;;
74551;SDS011;63025;55.472;38.432;2024-01-06T08:29:39;20.77;;;6.63;;
74551;SDS011;63025;55.472;38.432;2024-01-06T08:32:05;18.10;;;6.63;;
74551;SDS011;63025;55.472;38.432;2024-01-06T08:34:31;16.65;;;7.25;;
74551;SDS011;63025;55.472;38.432;2024-01-06T08:36:58;18.52;;;7.47;;
74551;SDS011;63025;55.472;38.432;2024-01-06T08:39:24;16.77;;;8.15;;
74551;SDS011;63025;55.472;38.432;2024-01-06T08:41:50;26.70;;;9.93;;
74551;SDS011;63025;55.472;38.432;2024-01-06T08:44:16;19.08;;;9.07;;
74551;SDS011;63025;55.472;38.432;2024-01-06T08:46:42;21.40;;;8.85;;
74551;SDS011;63025;55.472;38.432;2024-01-06T08:49:08;23.27;;;9.27;;
74551;SDS011;63025;55.472;38.432;2024-01-06T08:51:34;21.95;;;9.10;;
74551;SDS011;63025;55.472;38.432;2024-01-06T08:54:01;18.00;;;7.80;;
74551;SDS011;63025;55.472;38.432;2024-01-06T08:56:30;14.75;;;7.35;;
74551;SDS011;63025;55.472;38.432;2024-01-06T08:58:56;20.88;;;7.80;;
74551;SDS011;63025;55.472;38.432;2024-01-06T09:01:22;25.38;;;9.40;;
74551;SDS011;63025;55.472;38.432;2024-01-06T09:03:48;24.30;;;10.35;;
74551;SDS011;63025;55.472;38.432;2024-01-06T09:06:15;24.77;;;9.35;;
74551;SDS011;63025;55.472;38.432;2024-01-06T09:08:42;26.08;;;12.23;;
74551;SDS011;63025;55.472;38.432;2024-01-06T09:11:07;20.10;;;8.85;;
74551;SDS011;63025;55.472;38.432;2024-01-06T09:13:34;20.38;;;8.25;;
74551;SDS011;63025;55.472;38.432;2024-01-06T09:16:00;14.73;;;6.50;;
74551;SDS011;63025;55.472;38.432;2024-01-06T09:18:26;20.20;;;7.57;;
74551;SDS011;63025;55.472;38.432;2024-01-06T09:20:52;14.95;;;7.82;;
74551;SDS011;63025;55.472;38.432;2024-01-06T09:23:19;24.63;;;11.20;;
74551;SDS011;63025;55.472;38.432;2024-01-06T09:25:46;20.27;;;8.98;;
74551;SDS011;63025;55.472;38.432;2024-01-06T09:28:15;17.30;;;7.15;;
74551;SDS011;63025;55.472;38.432;2024-01-06T09:30:41;19.05;;;7.75;;
74551;SDS011;63025;55.472;38.432;2024-01-06T09:33:07;18.77;;;6.78;;
74551;SDS011;63025;55.472;38.432;2024-01-06T09:35:40;19.23;;;7.30;;
74551;SDS011;63025;55.472;38.432;2024-01-06T09:38:10;17.88;;;8.50;;
74551;SDS011;63025;55.472;38.432;2024-01-06T09:40:38;22.88;;;8.27;;
74551;SDS011;63025;55.472;38.432;2024-01-06T09:43:08;15.80;;;6.95;;
74551;SDS011;63025;55.472;38.432;2024-01-06T09:45:34;25.95;;;12.35;;
74551;SDS011;63025;55.472;38.432;2024-01-06T09:48:00;22.92;;;9.25;;
74551;SDS011;63025;55.472;38.432;2024-01-06T09:50:34;23.58;;;9.50;;
74551;SDS011;63025;55.472;38.432;2024-01-06T09:53:00;24.35;;;9.60;;
74551;SDS011;63025;55.472;38.432;2024-01-06T09:55:31;23.00;;;9.18;;
74551;SDS011;63025;55.472;38.432;2024-01-06T09:57:57;21.55;;;8.45;;
74551;SDS011;63025;55.472;38.432;2024-01-06T10:00:23;21.73;;;8.20;;
74551;SDS011;63025;55.472;38.432;2024-01-06T10:02:50;19.25;;;7.65;;
74551;SDS011;63025;55.472;38.432;2024-01-06T10:05:17;26.77;;;10.00;;
74551;SDS011;63025;55.472;38.432;2024-01-06T10:07:49;22.15;;;9.23;;
74551;SDS011;63025;55.472;38.432;2024-01-06T10:10:15;21.88;;;9.32;;
74551;SDS011;63025;55.472;38.432;2024-01-06T10:12:41;18.05;;;7.70;;
74551;SDS011;63025;55.472;38.432;2024-01-06T10:15:08;19.40;;;8.20;;
74551;SDS011;63025;55.472;38.432;2024-01-06T10:17:38;21.08;;;9.40;;
74551;SDS011;63025;55.472;38.432;2024-01-06T10:20:06;23.13;;;9.68;;
74551;SDS011;63025;55.472;38.432;2024-01-06T10:22:36;18.48;;;8.48;;
74551;SDS011;63025;55.472;38.432;2024-01-06T10:25:06;21.20;;;8.55;;
74551;SDS011;63025;55.472;38.432;2024-01-06T10:27:34;15.93;;;6.88;;
74551;SDS011;63025;55.472;38.432;2024-01-06T10:30:01;20.98;;;8.63;;
74551;SDS011;63025;55.472;38.432;2024-01-06T10:32:34;46.10;;;15.82;;
74551;SDS011;63025;55.472;38.432;2024-01-06T10:35:02;31.13;;;12.73;;
74551;SDS011;63025;55.472;38.432;2024-01-06T10:37:31;17.60;;;8.07;;
74551;SDS011;63025;55.472;38.432;2024-01-06T10:42:36;34.63;;;14.43;;
74551;SDS011;63025;55.472;38.432;2024-01-06T10:45:08;26.20;;;11.80;;
74551;SDS011;63025;55.472;38.432;2024-01-06T10:47:36;18.55;;;8.20;;
74551;SDS011;63025;55.472;38.432;2024-01-06T10:50:03;17.60;;;7.07;;
74551;SDS011;63025;55.472;38.432;2024-01-06T10:52:30;17.75;;;7.43;;
74551;SDS011;63025;55.472;38.432;2024-01-06T10:54:57;22.42;;;8.18;;
74551;SDS011;63025;55.472;38.432;2024-01-06T10:57:23;18.95;;;8.13;;
74551;SDS011;63025;55.472;38.432;2024-01-06T10:59:51;25.30;;;9.35;;
74551;SDS011;63025;55.472;38.432;2024-01-06T11:02:18;17.52;;;8.00;;
74551;SDS011;63025;55.472;38.432;2024-01-06T11:04:48;23.63;;;9.05;;
74551;SDS011;63025;55.472;38.432;2024-01-06T11:07:18;20.88;;;8.57;;
74551;SDS011;63025;55.472;38.432;2024-01-06T11:12:29;23.67;;;9.95;;
74551;SDS011;63025;55.472;38.432;2024-01-06T11:14:54;17.90;;;8.43;;
74551;SDS011;63025;55.472;38.432;2024-01-06T11:20:15;21.27;;;8.05;;
74551;SDS011;63025;55.472;38.432;2024-01-06T11:22:40;23.63;;;8.98;;
74551;SDS011;63025;55.472;38.432;2024-01-06T11:25:08;22.60;;;8.18;;
74551;SDS011;63025;55.472;38.432;2024-01-06T11:27:39;19.25;;;7.82;;
74551;SDS011;63025;55.472;38.432;2024-01-06T11:30:07;20.95;;;8.55;;
74551;SDS011;63025;55.472;38.432;2024-01-06T11:32:36;20.13;;;9.20;;
74551;SDS011;63025;55.472;38.432;2024-01-06T11:35:06;19.45;;;8.60;;
74551;SDS011;63025;55.472;38.432;2024-01-06T11:40:09;20.33;;;8.90;;
74551;SDS011;63025;55.472;38.432;2024-01-06T11:42:42;18.42;;;8.25;;
74551;SDS011;63025;55.472;38.432;2024-01-06T11:45:08;23.38;;;8.77;;
74551;SDS011;63025;55.472;38.432;2024-01-06T11:47:34;21.42;;;8.52;;
74551;SDS011;63025;55.472;38.432;2024-01-06T11:50:01;26.27;;;10.57;;
74551;SDS011;63025;55.472;38.432;2024-01-06T11:52:31;24.80;;;9.43;;
74551;SDS011;63025;55.472;38.432;2024-01-06T11:54:59;27.30;;;12.13;;
74551;SDS011;63025;55.472;38.432;2024-01-06T11:57:26;22.35;;;9.75;;
74551;SDS011;63025;55.472;38.432;2024-01-06T11:59:53;24.67;;;8.95;;
74551;SDS011;63025;55.472;38.432;2024-01-06T12:02:19;22.35;;;9.20;;
74551;SDS011;63025;55.472;38.432;2024-01-06T12:04:54;21.13;;;8.45;;
74551;SDS011;63025;55.472;38.432;2024-01-06T12:07:21;18.55;;;8.05;;
74551;SDS011;63025;55.472;38.432;2024-01-06T12:09:51;25.05;;;10.15;;
74551;SDS011;63025;55.472;38.432;2024-01-06T12:12:30;20.15;;;8.85;;
74551;SDS011;63025;55.472;38.432;2024-01-06T12:14:56;19.92;;;9.32;;
74551;SDS011;63025;55.472;38.432;2024-01-06T12:17:22;22.95;;;9.18;;
74551;SDS011;63025;55.472;38.432;2024-01-06T12:19:55;18.55;;;9.93;;
74551;SDS011;63025;55.472;38.432;2024-01-06T12:22:21;21.70;;;9.60;;
74551;SDS011;63025;55.472;38.432;2024-01-06T12:24:50;23.05;;;9.70;;
74551;SDS011;63025;55.472;38.432;2024-01-06T12:27:16;26.73;;;10.80;;
74551;SDS011;63025;55.472;38.432;2024-01-06T12:29:43;23.42;;;9.27;;
74551;SDS011;63025;55.472;38.432;2024-01-06T12:32:10;20.92;;;9.30;;
74551;SDS011;63025;55.472;38.432;2024-01-06T12:34:38;21.00;;;9.52;;
74551;SDS011;63025;55.472;38.432;2024-01-06T12:37:05;20.15;;;9.65;;
74551;SDS011;63025;55.472;38.432;2024-01-06T12:39:31;22.17;;;9.63;;
74551;SDS011;63025;55.472;38.432;2024-01-06T12:41:58;23.00;;;10.95;;
74551;SDS011;63025;55.472;38.432;2024-01-06T12:44:25;26.20;;;11.75;;
74551;SDS011;63025;55.472;38.432;2024-01-06T12:46:52;29.45;;;11.75;;
74551;SDS011;63025;55.472;38.432;2024-01-06T12:49:19;29.90;;;12.38;;
74551;SDS011;63025;55.472;38.432;2024-01-06T12:51:45;28.50;;;12.70;;
74551;SDS011;63025;55.472;38.432;2024-01-06T12:54:11;35.47;;;14.50;;
74551;SDS011;63025;55.472;38.432;2024-01-06T12:56:37;35.35;;;14.00;;
74551;SDS011;63025;55.472;38.432;2024-01-06T12:59:03;38.25;;;14.07;;
74551;SDS011;63025;55.472;38.432;2024-01-06T13:01:29;33.25;;;15.43;;
74551;SDS011;63025;55.472;38.432;2024-01-06T13:03:55;37.47;;;14.70;;
74551;SDS011;63025;55.472;38.432;2024-01-06T13:06:24;35.70;;;15.15;;
74551;SDS011;63025;55.472;38.432;2024-01-06T13:08:51;41.55;;;16.95;;
74551;SDS011;63025;55.472;38.432;2024-01-06T13:11:17;45.10;;;17.17;;
74551;SDS011;63025;55.472;38.432;2024-01-06T13:13:44;43.60;;;18.25;;
74551;SDS011;63025;55.472;38.432;2024-01-06T13:16:09;45.58;;;18.60;;
74551;SDS011;63025;55.472;38.432;2024-01-06T13:18:35;73.90;;;28.75;;
74551;SDS011;63025;55.472;38.432;2024-01-06T13:21:01;67.53;;;26.42;;
74551;SDS011;63025;55.472;38.432;2024-01-06T13:23:27;57.88;;;22.50;;
74551;SDS011;63025;55.472;38.432;2024-01-06T13:25:53;44.13;;;18.63;;
74551;SDS011;63025;55.472;38.432;2024-01-06T13:28:19;42.40;;;16.65;;
74551;SDS011;63025;55.472;38.432;2024-01-06T13:30:45;45.35;;;17.95;;
74551;SDS011;63025;55.472;38.432;2024-01-06T13:33:12;37.72;;;15.88;;
74551;SDS011;63025;55.472;38.432;2024-01-06T13:35:38;40.08;;;16.75;;
74551;SDS011;63025;55.472;38.432;2024-01-06T13:38:04;38.63;;;16.10;;
74551;SDS011;63025;55.472;38.432;2024-01-06T13:40:30;43.58;;;16.30;;
74551;SDS011;63025;55.472;38.432;2024-01-06T13:42:57;29.88;;;14.38;;
74551;SDS011;63025;55.472;38.432;2024-01-06T13:45:23;65.22;;;26.48;;
74551;SDS011;63025;55.472;38.432;2024-01-06T13:47:49;64.00;;;26.17;;
74551;SDS011;63025;55.472;38.432;2024-01-06T13:50:15;96.38;;;41.60;;
74551;SDS011;63025;55.472;38.432;2024-01-06T13:52:43;73.47;;;33.25;;
74551;SDS011;63025;55.472;38.432;2024-01-06T13:55:11;47.30;;;20.25;;
74551;SDS011;63025;55.472;38.432;2024-01-06T13:57:37;39.25;;;15.98;;
74551;SDS011;63025;55.472;38.432;2024-01-06T14:00:08;38.10;;;14.88;;
74551;SDS011;63025;55.472;38.432;2024-01-06T14:02:37;32.70;;;12.73;;
74551;SDS011;63025;55.472;38.432;2024-01-06T14:05:04;31.17;;;13.50;;
74551;SDS011;63025;55.472;38.432;2024-01-06T14:07:34;35.63;;;13.88;;
74551;SDS011;63025;55.472;38.432;2024-01-06T14:10:11;25.88;;;12.23;;
74551;SDS011;63025;55.472;38.432;2024-01-06T14:12:38;33.53;;;15.32;;
74551;SDS011;63025;55.472;38.432;2024-01-06T14:15:06;32.63;;;13.63;;
74551;SDS011;63025;55.472;38.432;2024-01-06T14:17:32;32.70;;;14.27;;
74551;SDS011;63025;55.472;38.432;2024-01-06T14:19:58;35.30;;;14.13;;
74551;SDS011;63025;55.472;38.432;2024-01-06T14:22:25;31.13;;;13.07;;
74551;SDS011;63025;55.472;38.432;2024-01-06T14:24:51;36.10;;;14.10;;
74551;SDS011;63025;55.472;38.432;2024-01-06T14:27:18;27.52;;;11.63;;